Archival Weather

Chicago O'Hare International

Chicago, Illinois (KORD)

Report from: Saturday, November 5, 2022 6:16 AM CDT
Current time: Saturday, March 2, 2024 3:57 AM CST

Current weather – Weather history – Daily summaries
Weather forecast

Temperature16.7°C (62.1°F)
Dew point13.9°C (57.0°F)
Winds 22 kts (11.3 m/s, 25.3 mph) South (170°)
Wind gusts 37 kts (19 m/s, 42.6 mph)
Peak wind 40 kts (20.6 m/s, 46 mph) South (170°) at 11:02
Visibility10 mi. (16.1 km)
Clouds Ceiling: Broken clouds 1,500 ft. (457 m)
Overcast 2,100 ft. (640 m)
Altimeter29.54 in.Hg (1000 mB)
Relative humidity84 %
Density altitude860 ft. (262 m)
Remarks Automated weather observing station with precipitation discriminator
Flight conditions Marginal Visual Meteorological Conditions
Raw dataKORD 051116Z 17022G37KT 10SM BKN015 OVC021 17/14 A2954 RMK AO2 PK WND 17040/1102 T01670139
An error has occurred. This application may no longer respond until reloaded. Reload 🗙